Terminal Aerodrome Forecast
Issued by NWS New Orleans/Baton Rouge, LA

Home | Current Version | Previous Version | Text Only | Print | Product List | Glossary On
Versions: 1 2 3 4 5 6 7 8 9 10 11 12 13 14 15 16 17 18 19 20 21 22 23
000
FTUS44 KLIX 232331
TAFNEW
TAF
KNEW 232331Z 2400/2424 10010KT P6SM FEW050
     FM240400 06003KT P6SM FEW050 FEW250
     FM241500 05009KT P6SM SCT030 SCT100=

USA.gov is the U.S. government's official web portal to all federal, state and local government web resources and services.